createdAt,value
2022-09-21T00:01:31.229Z,70.50
2022-09-21T00:04:00.106Z,70.04
2022-09-21T00:06:28.225Z,69.75
2022-09-21T00:08:55.692Z,69.62
2022-09-21T00:11:27.032Z,69.39
2022-09-21T00:14:00.844Z,69.41
2022-09-21T00:16:28.506Z,69.22
2022-09-21T00:18:55.468Z,69.25
2022-09-21T00:21:22.335Z,68.85
2022-09-21T00:23:51.636Z,68.78
2022-09-21T00:26:25.292Z,68.43
2022-09-21T00:28:58.798Z,68.15
2022-09-21T00:31:26.653Z,69.01
2022-09-21T00:33:53.874Z,69.19
2022-09-21T00:36:23.996Z,69.15
2022-09-21T00:38:54.878Z,68.83
2022-09-21T00:41:22.038Z,68.93
2022-09-21T00:44:25.254Z,68.81
2022-09-21T00:46:56.884Z,68.88
2022-09-21T00:49:27.098Z,68.80
2022-09-21T00:51:59.589Z,68.62
2022-09-21T00:54:30.515Z,69.23
2022-09-21T00:56:59.927Z,69.16
2022-09-21T00:59:30.107Z,69.19
2022-09-21T01:01:58.632Z,69.08
2022-09-21T01:04:28.384Z,68.75
2022-09-21T01:07:00.011Z,68.81
2022-09-21T01:09:29.458Z,69.10
2022-09-21T01:11:56.026Z,68.73
2022-09-21T01:14:34.865Z,68.66
2022-09-21T01:17:15.257Z,68.20
2022-09-21T01:19:57.332Z,67.64
2022-09-21T01:22:38.955Z,67.70
2022-09-21T01:25:33.058Z,67.51
2022-09-21T01:28:29.330Z,67.43
2022-09-21T01:30:59.733Z,67.32
2022-09-21T01:33:50.963Z,67.05
2022-09-21T01:36:21.508Z,67.20
2022-09-21T01:38:54.294Z,67.17
2022-09-21T01:41:28.122Z,67.32
2022-09-21T01:43:59.566Z,67.57
2022-09-21T01:46:30.827Z,67.28
2022-09-21T01:49:00.906Z,67.48
2022-09-21T01:51:32.918Z,68.00
2022-09-21T01:54:10.154Z,67.77
2022-09-21T01:56:42.012Z,67.88
2022-09-21T01:59:30.541Z,67.54
2022-09-21T02:02:00.529Z,66.88
2022-09-21T02:04:27.381Z,66.83
2022-09-21T02:06:54.141Z,66.68
2022-09-21T02:09:23.779Z,66.72
2022-09-21T02:11:52.726Z,66.90
2022-09-21T02:14:24.094Z,66.65
2022-09-21T02:17:06.127Z,66.45
2022-09-21T02:19:57.868Z,66.56
2022-09-21T02:22:33.945Z,66.54
2022-09-21T02:25:18.594Z,66.21
2022-09-21T02:28:01.203Z,66.31
2022-09-21T02:30:28.142Z,66.26
2022-09-21T02:33:13.568Z,66.14
2022-09-21T02:35:45.393Z,66.02
2022-09-21T02:38:33.275Z,66.19
2022-09-21T02:41:06.988Z,66.04
2022-09-21T02:43:45.440Z,66.03
2022-09-21T02:46:19.864Z,66.13
2022-09-21T02:48:51.669Z,65.79
2022-09-21T02:51:25.938Z,66.01
2022-09-21T02:53:54.003Z,66.07
2022-09-21T02:56:21.588Z,66.30
2022-09-21T02:58:51.172Z,66.24
2022-09-21T03:01:19.029Z,66.22
2022-09-21T03:03:45.788Z,66.66
2022-09-21T03:06:15.223Z,66.73
2022-09-21T03:08:41.844Z,67.05
2022-09-21T03:11:09.128Z,66.99
2022-09-21T03:13:36.776Z,67.13
2022-09-21T03:16:07.481Z,67.46
2022-09-21T03:18:36.648Z,67.71
2022-09-21T03:21:03.606Z,67.51
2022-09-21T03:23:30.393Z,67.48
2022-09-21T03:25:57.157Z,67.84
2022-09-21T03:28:24.497Z,67.51
2022-09-21T03:30:54.664Z,67.59
2022-09-21T03:33:21.792Z,67.71
2022-09-21T03:35:50.789Z,67.78
2022-09-21T03:38:18.872Z,67.99
2022-09-21T03:40:51.770Z,67.81
2022-09-21T03:43:21.233Z,67.76
2022-09-21T03:45:50.021Z,67.88
2022-09-21T03:48:19.027Z,68.16
2022-09-21T03:50:48.031Z,68.34
2022-09-21T03:53:15.252Z,68.23
2022-09-21T03:55:42.138Z,68.56
2022-09-21T03:58:09.088Z,68.35
2022-09-21T04:00:36.824Z,68.46
2022-09-21T04:03:03.821Z,68.76
2022-09-21T04:05:32.763Z,69.00
2022-09-21T04:08:02.085Z,68.68
2022-09-21T04:10:32.889Z,68.55
2022-09-21T04:13:04.862Z,68.56
2022-09-21T04:15:34.098Z,68.31
2022-09-21T04:18:00.893Z,67.99
2022-09-21T04:20:27.633Z,68.05
2022-09-21T04:22:54.622Z,67.95
2022-09-21T04:25:21.292Z,68.16
2022-09-21T04:27:50.200Z,67.95
2022-09-21T04:30:17.162Z,67.93
2022-09-21T04:32:48.674Z,67.81
2022-09-21T04:35:17.901Z,67.88
2022-09-21T04:37:44.571Z,68.02
2022-09-21T04:40:11.277Z,67.90
2022-09-21T04:42:40.386Z,67.67
2022-09-21T04:45:07.916Z,67.53
2022-09-21T04:47:36.690Z,67.69
2022-09-21T04:50:03.508Z,68.25
2022-09-21T04:52:32.707Z,68.30
2022-09-21T04:54:59.537Z,68.05
2022-09-21T04:57:28.605Z,68.43
2022-09-21T04:59:55.373Z,68.30
2022-09-21T05:02:22.475Z,68.00
2022-09-21T05:04:51.152Z,67.95
2022-09-21T05:07:20.818Z,67.96
2022-09-21T05:10:05.127Z,67.98
2022-09-21T05:12:32.830Z,66.93
2022-09-21T05:15:02.440Z,66.81
2022-09-21T05:17:29.248Z,67.08
2022-09-21T05:19:58.177Z,66.92
2022-09-21T05:22:27.881Z,67.23
2022-09-21T05:24:57.283Z,67.45
2022-09-21T05:27:29.120Z,67.34
2022-09-21T05:29:56.212Z,67.50
2022-09-21T05:32:34.259Z,67.07
2022-09-21T05:35:07.372Z,66.74
2022-09-21T05:37:48.210Z,66.64
2022-09-21T05:40:18.505Z,66.35
2022-09-21T05:42:50.315Z,65.54
2022-09-21T05:45:18.698Z,65.72
2022-09-21T05:48:06.035Z,64.95
2022-09-21T05:50:50.992Z,64.21
2022-09-21T05:53:54.403Z,64.39
2022-09-21T05:56:30.266Z,63.77
2022-09-21T05:59:22.416Z,63.60
2022-09-21T06:02:05.133Z,63.83
2022-09-21T06:04:32.144Z,63.26
2022-09-21T06:06:58.883Z,64.08
2022-09-21T06:09:26.802Z,64.08
2022-09-21T06:11:53.840Z,64.28
2022-09-21T06:14:26.546Z,64.22
2022-09-21T06:16:55.639Z,65.21
2022-09-21T06:19:22.382Z,65.34
2022-09-21T06:21:49.355Z,65.58
2022-09-21T06:24:18.221Z,65.44
2022-09-21T06:26:47.320Z,65.63
2022-09-21T06:29:17.542Z,65.29
2022-09-21T06:31:44.246Z,65.19
2022-09-21T06:34:13.475Z,65.71
2022-09-21T06:36:47.971Z,65.53
2022-09-21T06:39:17.375Z,65.73
2022-09-21T06:41:47.422Z,65.64
2022-09-21T06:44:16.019Z,65.55
2022-09-21T06:46:42.893Z,65.37
2022-09-21T06:49:12.253Z,65.15
2022-09-21T06:51:41.513Z,64.77
2022-09-21T06:54:08.346Z,64.87
2022-09-21T06:56:37.851Z,64.82
2022-09-21T06:59:04.751Z,64.69
2022-09-21T07:01:37.198Z,64.72
2022-09-21T07:04:03.959Z,64.28
2022-09-21T07:06:32.875Z,64.46
2022-09-21T07:11:50.947Z,63.69
2022-09-21T07:14:20.375Z,63.87
2022-09-21T07:16:49.386Z,63.25
2022-09-21T07:19:16.167Z,63.53
2022-09-21T07:21:42.917Z,63.36
2022-09-21T07:24:15.440Z,63.00
2022-09-21T07:26:46.967Z,63.07
2022-09-21T07:29:13.542Z,62.54
2022-09-21T07:31:44.688Z,62.63
2022-09-21T07:34:16.604Z,62.06
2022-09-21T07:36:45.802Z,62.81
2022-09-21T07:39:12.528Z,61.87
2022-09-21T07:41:39.192Z,61.07
2022-09-21T07:44:06.004Z,61.25
2022-09-21T07:46:32.756Z,60.76
2022-09-21T07:48:59.480Z,61.21
2022-09-21T07:51:26.144Z,60.92
2022-09-21T07:53:56.919Z,60.36
2022-09-21T07:56:23.585Z,59.40
2022-09-21T07:59:08.395Z,60.22
2022-09-21T08:01:40.492Z,60.73
2022-09-21T08:04:13.801Z,60.30
2022-09-21T08:06:40.614Z,60.62
2022-09-21T08:09:08.524Z,59.54
2022-09-21T08:11:38.320Z,58.89
2022-09-21T08:14:07.443Z,57.81
2022-09-21T08:16:38.206Z,58.27
2022-09-21T08:19:05.554Z,58.10
2022-09-21T08:21:32.357Z,58.06
2022-09-21T08:23:59.090Z,58.83
2022-09-21T08:26:26.302Z,58.65
2022-09-21T08:28:53.841Z,57.56
2022-09-21T08:31:24.492Z,58.02
2022-09-21T08:33:54.767Z,56.96
2022-09-21T08:36:23.858Z,56.73
2022-09-21T08:38:50.928Z,56.15
2022-09-21T08:41:17.735Z,56.37
2022-09-21T08:43:46.022Z,56.34
2022-09-21T08:46:17.318Z,55.16
2022-09-21T08:49:10.205Z,55.51
2022-09-21T08:51:38.797Z,54.59
2022-09-21T08:54:19.644Z,55.32
2022-09-21T08:57:04.452Z,55.51
2022-09-21T08:59:32.046Z,55.57
2022-09-21T09:02:13.553Z,55.41
2022-09-21T09:04:51.868Z,55.46
2022-09-21T09:07:41.807Z,55.94
2022-09-21T09:10:14.508Z,53.25
2022-09-21T09:12:47.102Z,53.38
2022-09-21T09:15:16.899Z,53.65
2022-09-21T09:17:59.306Z,54.91
2022-09-21T09:20:39.560Z,53.76
2022-09-21T09:23:18.487Z,52.89
2022-09-21T09:25:47.585Z,52.68
2022-09-21T09:28:20.376Z,53.29
2022-09-21T09:30:53.131Z,52.20
2022-09-21T09:33:29.258Z,52.86
2022-09-21T09:36:02.428Z,52.54
2022-09-21T09:38:44.292Z,52.44
2022-09-21T09:41:30.043Z,53.71
2022-09-21T09:44:28.079Z,53.26
2022-09-21T09:47:32.426Z,54.07
2022-09-21T09:50:06.641Z,53.19
2022-09-21T09:52:36.249Z,53.62
2022-09-21T09:55:21.632Z,51.94
2022-09-21T09:57:50.874Z,52.77
2022-09-21T10:00:20.761Z,51.94
2022-09-21T10:02:50.614Z,51.66
2022-09-21T10:05:41.154Z,52.36
2022-09-21T10:08:42.056Z,52.30
2022-09-21T10:11:12.804Z,52.30
2022-09-21T10:13:46.145Z,52.57
2022-09-21T10:16:24.398Z,52.24
2022-09-21T10:18:56.476Z,52.01
2022-09-21T10:21:35.551Z,52.38
2022-09-21T10:24:05.976Z,49.96
2022-09-21T10:26:57.529Z,49.35
2022-09-21T10:29:30.834Z,50.14
2022-09-21T10:32:29.859Z,50.29
2022-09-21T10:35:07.197Z,50.22
2022-09-21T10:37:35.876Z,48.87
2022-09-21T10:40:04.069Z,48.04
2022-09-21T10:42:35.544Z,49.50
2022-09-21T10:45:13.116Z,46.41
2022-09-21T10:47:43.566Z,45.55
2022-09-21T10:50:35.249Z,45.48
2022-09-21T10:53:10.677Z,45.82
2022-09-21T10:55:52.590Z,44.56
2022-09-21T10:58:27.420Z,43.36
2022-09-21T11:00:55.600Z,41.33
2022-09-21T11:03:31.280Z,43.27
2022-09-21T11:06:04.956Z,43.33
2022-09-21T11:09:01.198Z,40.67
2022-09-21T11:11:30.126Z,42.77
2022-09-21T11:14:05.060Z,43.15
2022-09-21T11:16:37.195Z,43.72
2022-09-21T11:19:24.640Z,41.83
2022-09-21T11:22:13.220Z,41.81
2022-09-21T11:25:01.892Z,42.37
2022-09-21T11:27:33.752Z,40.61
2022-09-21T11:30:15.436Z,39.84
2022-09-21T11:33:06.661Z,39.90
2022-09-21T11:35:42.551Z,39.52
2022-09-21T11:38:09.965Z,38.94
2022-09-21T11:40:53.279Z,39.81
2022-09-21T11:43:44.868Z,40.90
2022-09-21T11:46:20.536Z,39.06
2022-09-21T11:49:19.653Z,37.39
2022-09-21T11:51:46.293Z,36.52
2022-09-21T11:54:46.651Z,34.29
2022-09-21T11:57:18.843Z,33.21
2022-09-21T11:59:51.206Z,32.55
2022-09-21T12:03:06.428Z,33.18
2022-09-21T12:05:50.768Z,34.26
2022-09-21T12:08:50.455Z,33.94
2022-09-21T12:11:31.664Z,34.96
2022-09-21T12:17:09.300Z,30.20
2022-09-21T12:19:44.890Z,31.02
2022-09-21T12:22:28.894Z,31.74
2022-09-21T12:25:16.995Z,33.31
2022-09-21T12:27:48.928Z,34.23
2022-09-21T12:30:23.378Z,32.41
2022-09-21T12:33:17.758Z,34.98
2022-09-21T12:36:18.657Z,36.45
2022-09-21T12:39:13.695Z,37.40
2022-09-21T12:41:43.654Z,37.43
2022-09-21T12:44:20.637Z,37.91
2022-09-21T12:46:57.408Z,37.99
2022-09-21T12:49:33.489Z,38.06
2022-09-21T12:52:07.228Z,38.22
2022-09-21T12:54:44.363Z,38.54
2022-09-21T12:57:49.318Z,36.74
2022-09-21T13:00:19.770Z,37.96
2022-09-21T13:02:53.782Z,38.56
2022-09-21T13:05:38.439Z,37.48
2022-09-21T13:08:13.637Z,37.17
2022-09-21T13:10:55.907Z,36.02
2022-09-21T13:13:51.357Z,34.03
2022-09-21T13:16:32.603Z,32.36
2022-09-21T13:19:22.258Z,32.32
2022-09-21T13:22:29.205Z,32.85
2022-09-21T13:25:18.728Z,33.85
2022-09-21T13:28:20.072Z,33.15
2022-09-21T13:31:39.417Z,33.16
2022-09-21T13:34:09.664Z,32.55
2022-09-21T13:36:39.264Z,31.63
2022-09-21T13:39:09.892Z,32.33
2022-09-21T13:42:01.905Z,31.23
2022-09-21T13:44:42.452Z,29.01
2022-09-21T13:47:14.307Z,29.78
2022-09-21T13:49:45.200Z,29.32
2022-09-21T13:52:15.772Z,30.12
2022-09-21T13:54:45.499Z,29.38
2022-09-21T13:57:32.825Z,29.53
2022-09-21T14:00:12.888Z,29.47
2022-09-21T14:02:47.495Z,29.55
2022-09-21T14:05:26.371Z,30.49
2022-09-21T14:08:05.241Z,30.02
2022-09-21T14:10:35.793Z,29.62
2022-09-21T14:13:07.588Z,29.53
2022-09-21T14:15:37.851Z,29.13
2022-09-21T14:18:17.125Z,28.16
2022-09-21T14:21:09.889Z,29.58
2022-09-21T14:23:39.372Z,28.62
2022-09-21T14:26:37.497Z,27.66
2022-09-21T14:29:12.786Z,27.01
2022-09-21T14:31:41.790Z,27.14
2022-09-21T14:34:15.918Z,28.07
2022-09-21T14:36:45.811Z,28.25
2022-09-21T14:39:35.304Z,26.99
2022-09-21T14:42:20.164Z,26.97
2022-09-21T14:44:51.417Z,27.68
2022-09-21T14:47:25.482Z,27.39
2022-09-21T14:50:15.208Z,27.94
2022-09-21T14:52:57.419Z,27.17
2022-09-21T14:55:45.856Z,26.99
2022-09-21T14:58:35.091Z,28.36
2022-09-21T15:01:34.414Z,28.40
2022-09-21T15:04:19.081Z,29.12
2022-09-21T15:07:21.318Z,29.56
2022-09-21T15:10:25.520Z,29.69
2022-09-21T15:13:01.800Z,30.46
2022-09-21T15:15:38.064Z,30.78
2022-09-21T15:18:20.498Z,31.33
2022-09-21T15:21:01.474Z,31.99
2022-09-21T15:23:33.464Z,29.82
2022-09-21T15:26:13.957Z,29.97
2022-09-21T15:29:08.445Z,31.08
2022-09-21T15:31:38.228Z,30.08
2022-09-21T15:34:09.565Z,30.13
2022-09-21T15:36:39.364Z,30.95
2022-09-21T15:39:23.541Z,31.03
2022-09-21T15:42:18.519Z,31.69
2022-09-21T15:44:49.061Z,31.59
2022-09-21T15:47:20.958Z,31.36
2022-09-21T15:49:48.130Z,32.22
2022-09-21T15:52:40.334Z,33.02
2022-09-21T15:55:25.386Z,32.70
2022-09-21T15:57:56.400Z,31.87
2022-09-21T16:00:26.703Z,32.40
2022-09-21T16:03:05.935Z,32.98
2022-09-21T16:05:55.427Z,33.19
2022-09-21T16:08:31.126Z,33.20
2022-09-21T16:11:19.065Z,33.55
2022-09-21T16:14:05.805Z,33.56
2022-09-21T16:16:32.784Z,34.89
2022-09-21T16:19:02.124Z,35.35
2022-09-21T16:21:37.745Z,35.89
2022-09-21T16:24:12.396Z,37.58
2022-09-21T16:26:42.031Z,38.91
2022-09-21T16:29:09.113Z,38.52
2022-09-21T16:31:36.232Z,39.85
2022-09-21T16:34:23.267Z,41.54
2022-09-21T16:36:51.813Z,42.68
2022-09-21T16:39:19.934Z,42.94
2022-09-21T16:42:05.811Z,41.74
2022-09-21T16:44:40.239Z,43.95
2022-09-21T16:47:13.269Z,43.64
2022-09-21T16:49:40.052Z,43.72
2022-09-21T16:52:07.575Z,43.64
2022-09-21T16:54:39.034Z,44.24
2022-09-21T16:57:06.483Z,45.34
2022-09-21T16:59:36.597Z,44.95
2022-09-21T17:02:06.061Z,45.67
2022-09-21T17:04:34.504Z,46.35
2022-09-21T17:07:03.359Z,46.68
2022-09-21T17:09:35.497Z,46.00
2022-09-21T17:12:04.151Z,47.52
2022-09-21T17:14:44.322Z,46.61
2022-09-21T17:17:27.922Z,48.06
2022-09-21T17:19:57.136Z,48.23
2022-09-21T17:22:30.419Z,48.38
2022-09-21T17:24:59.356Z,48.47
2022-09-21T17:27:29.123Z,48.09
2022-09-21T17:29:56.554Z,48.19
2022-09-21T17:32:26.724Z,48.16
2022-09-21T17:35:15.260Z,48.56
2022-09-21T17:37:44.715Z,48.05
2022-09-21T17:40:15.147Z,48.69
2022-09-21T17:42:46.506Z,47.92
2022-09-21T17:45:25.180Z,48.29
2022-09-21T17:47:52.441Z,47.81
2022-09-21T17:50:23.310Z,47.92
2022-09-21T17:53:08.954Z,49.40
2022-09-21T17:55:35.905Z,48.40
2022-09-21T17:58:34.492Z,48.00
2022-09-21T18:01:07.494Z,48.51
2022-09-21T18:03:41.218Z,48.30
2022-09-21T18:06:12.940Z,49.35
2022-09-21T18:08:43.187Z,49.38
2022-09-21T18:11:37.214Z,49.85
2022-09-21T18:14:17.401Z,50.14
2022-09-21T18:17:02.808Z,50.39
2022-09-21T18:20:10.938Z,50.58
2022-09-21T18:22:40.527Z,51.24
2022-09-21T18:25:16.035Z,50.76
2022-09-21T18:27:48.144Z,50.98
2022-09-21T18:30:19.996Z,50.34
2022-09-21T18:32:49.479Z,51.28
2022-09-21T18:35:34.929Z,50.47
2022-09-21T18:38:40.987Z,51.40
2022-09-21T18:41:17.899Z,50.56
2022-09-21T18:43:50.564Z,50.89
2022-09-21T18:46:21.437Z,50.35
2022-09-21T18:48:53.563Z,50.53
2022-09-21T18:51:22.976Z,50.73
2022-09-21T18:53:58.313Z,50.79
2022-09-21T18:56:34.115Z,51.04
2022-09-21T18:59:03.532Z,51.31
2022-09-21T19:01:34.010Z,51.75
2022-09-21T19:04:01.538Z,51.33
2022-09-21T19:06:57.155Z,51.58
2022-09-21T19:09:42.213Z,51.76
2022-09-21T19:12:21.444Z,52.91
2022-09-21T19:15:00.296Z,53.12
2022-09-21T19:17:39.129Z,52.78
2022-09-21T19:20:33.134Z,52.76
2022-09-21T19:23:28.187Z,52.70
2022-09-21T19:26:38.468Z,53.39
2022-09-21T19:29:26.510Z,52.79
2022-09-21T19:31:55.552Z,52.84
2022-09-21T19:34:28.130Z,53.36
2022-09-21T19:36:57.330Z,54.05
2022-09-21T19:39:24.191Z,53.65
2022-09-21T19:42:02.174Z,53.59
2022-09-21T19:44:34.899Z,54.01
2022-09-21T19:47:16.947Z,54.16
2022-09-21T19:49:49.638Z,54.08
2022-09-21T19:52:22.445Z,54.09
2022-09-21T19:55:10.200Z,54.24
2022-09-21T19:58:00.133Z,54.17
2022-09-21T20:00:29.387Z,55.40
2022-09-21T20:03:11.100Z,55.24
2022-09-21T20:05:47.755Z,55.63
2022-09-21T20:08:29.448Z,55.34
2022-09-21T20:11:02.079Z,55.11
2022-09-21T20:13:57.922Z,55.20
2022-09-21T20:16:37.743Z,55.58
2022-09-21T20:19:15.132Z,55.50
2022-09-21T20:21:43.269Z,55.78
2022-09-21T20:24:19.826Z,55.37
2022-09-21T20:26:53.584Z,55.62
2022-09-21T20:29:23.258Z,55.50
2022-09-21T20:31:52.767Z,55.62
2022-09-21T20:34:22.247Z,55.90
2022-09-21T20:36:53.929Z,55.80
2022-09-21T20:39:20.857Z,56.49
2022-09-21T20:41:47.526Z,56.19
2022-09-21T20:44:14.303Z,56.50
2022-09-21T20:46:40.982Z,56.44
2022-09-21T20:49:15.316Z,56.19
2022-09-21T20:51:45.415Z,56.34
2022-09-21T20:54:13.502Z,56.36
2022-09-21T20:56:40.934Z,56.37
2022-09-21T20:59:09.831Z,56.40
2022-09-21T21:01:36.622Z,56.55
2022-09-21T21:04:03.870Z,56.43
2022-09-21T21:06:34.080Z,56.52
2022-09-21T21:09:01.033Z,56.43
2022-09-21T21:11:30.029Z,56.73
2022-09-21T21:13:56.829Z,56.88
2022-09-21T21:16:23.928Z,57.43
2022-09-21T21:18:52.893Z,57.06
2022-09-21T21:21:21.626Z,57.10
2022-09-21T21:24:10.077Z,57.41
2022-09-21T21:27:00.781Z,57.25
2022-09-21T21:29:26.633Z,57.34
2022-09-21T21:31:53.433Z,57.48
2022-09-21T21:34:20.757Z,57.30
2022-09-21T21:36:48.165Z,57.10
2022-09-21T21:39:17.158Z,57.66
2022-09-21T21:41:43.875Z,57.23
2022-09-21T21:44:11.527Z,57.15
2022-09-21T21:46:41.428Z,57.59
2022-09-21T21:49:08.123Z,57.39
2022-09-21T21:51:34.792Z,57.45
2022-09-21T21:54:01.545Z,57.37
2022-09-21T21:56:33.051Z,57.32
2022-09-21T21:58:59.710Z,57.48
2022-09-21T22:01:29.760Z,57.17
2022-09-21T22:24:16.058Z,57.36
2022-09-21T22:26:44.321Z,57.41
2022-09-21T22:29:14.981Z,56.91
2022-09-21T22:31:45.980Z,57.15
2022-09-21T22:34:15.565Z,57.23
2022-09-21T22:36:45.626Z,57.27
2022-09-21T22:39:15.354Z,57.50
2022-09-21T22:41:42.821Z,57.36
2022-09-21T22:44:10.488Z,58.00
2022-09-21T22:46:39.961Z,57.58
2022-09-21T22:49:09.719Z,57.52
2022-09-21T22:51:38.013Z,57.58
2022-09-21T22:54:07.278Z,57.74
2022-09-21T22:56:38.947Z,57.70
2022-09-21T22:59:05.793Z,57.31
2022-09-21T23:01:37.535Z,57.35
2022-09-21T23:04:09.712Z,57.58
2022-09-21T23:06:40.741Z,57.39
2022-09-21T23:09:15.114Z,57.48
2022-09-21T23:11:43.905Z,57.57
2022-09-21T23:14:11.687Z,57.82
2022-09-21T23:16:40.664Z,57.70
2022-09-21T23:19:15.482Z,57.87
2022-09-21T23:21:44.322Z,57.79
2022-09-21T23:24:10.966Z,57.84
2022-09-21T23:26:37.815Z,57.83
2022-09-21T23:29:09.265Z,58.49
2022-09-21T23:31:36.018Z,58.21
2022-09-21T23:34:08.552Z,58.24
2022-09-21T23:36:37.565Z,58.38
2022-09-21T23:39:08.036Z,58.21
2022-09-21T23:41:36.414Z,58.29
2022-09-21T23:44:06.043Z,58.49
2022-09-21T23:46:35.331Z,58.39
2022-09-21T23:49:02.090Z,58.84
2022-09-21T23:51:30.032Z,59.27
2022-09-21T23:53:57.822Z,58.66
2022-09-21T23:56:25.152Z,58.83
2022-09-21T23:58:52.344Z,58.88
